Time;durP1;ratioP1;P1;durP2;ratioP2;P2;SDS_P1;SDS_P2;PMS_P1;PMS_P2;Temp;Humidity;BMP_temperature;BMP_pressure;BME280_temperature;BME280_humidity;BME280_pressure;Samples;Min_cycle;Max_cycle;Signal;HPM_P1;HPM_P2
2023/09/08 09:08:34;;;;;;;10.10;7.50;;;37.90;60.90;;;;;;5088912;27;20595;-68
2023/09/08 09:11:01;;;;;;;8.10;7.40;;;37.90;61.00;;;;;;5065487;28;20444;-67
2023/09/08 09:13:27;;;;;;;8.50;7.70;;;38.40;59.70;;;;;;5053417;28;20951;-67
2023/09/08 09:15:59;;;;;;;7.97;7.33;;;38.20;59.50;;;;;;5057702;28;20932;-66
2023/09/08 09:18:29;;;;;;;9.63;8.40;;;37.90;60.00;;;;;;5058067;28;20450;-66
2023/09/08 09:20:57;;;;;;;8.13;7.43;;;37.80;60.00;;;;;;5058932;28;20817;-67
2023/09/08 09:23:31;;;;;;;8.63;7.83;;;37.80;60.20;;;;;;5054793;28;20446;-67
2023/09/08 09:26:00;;;;;;;9.30;8.50;;;37.80;60.50;;;;;;5055199;28;20450;-67
2023/09/08 09:28:29;;;;;;;8.30;7.70;;;38.10;60.30;;;;;;5054105;28;20530;-67
2023/09/08 09:30:56;;;;;;;9.90;8.30;;;38.30;60.10;;;;;;5054260;28;20449;-67
2023/09/08 09:33:24;;;;;;;10.50;8.50;;;38.00;59.80;;;;;;5055677;28;20437;-67
2023/09/08 09:35:52;;;;;;;8.60;8.00;;;38.40;59.90;;;;;;5065452;28;20445;-68
2023/09/08 09:38:20;;;;;;;8.90;8.03;;;38.30;59.40;;;;;;5064392;28;20554;-67
2023/09/08 09:40:48;;;;;;;8.87;8.07;;;38.20;60.00;;;;;;5065320;28;20948;-66
2023/09/08 09:43:17;;;;;;;10.70;8.57;;;37.70;59.50;;;;;;5063584;28;20437;-66
2023/09/08 09:45:44;;;;;;;8.87;8.17;;;37.70;59.70;;;;;;5060857;28;20532;-66
2023/09/08 09:48:11;;;;;;;8.63;7.77;;;37.40;61.00;;;;;;5061756;28;20452;-66
2023/09/08 09:50:40;;;;;;;8.53;7.83;;;37.10;61.20;;;;;;5056190;28;20443;-67
2023/09/08 09:53:10;;;;;;;12.10;8.40;;;36.70;61.10;;;;;;5053230;28;20438;-65
2023/09/08 09:55:38;;;;;;;8.60;7.90;;;36.50;62.10;;;;;;5065372;28;20453;-66
2023/09/08 09:58:06;;;;;;;9.63;7.07;;;36.20;63.40;;;;;;5062075;28;20492;-67
2023/09/08 10:00:36;;;;;;;9.03;7.80;;;35.80;63.70;;;;;;5058695;28;20456;-67
2023/09/08 10:03:05;;;;;;;9.63;7.90;;;35.40;64.10;;;;;;5056065;28;20798;-67
2023/09/08 10:05:32;;;;;;;9.17;8.30;;;34.90;65.50;;;;;;5056043;28;20545;-66
2023/09/08 10:07:59;;;;;;;11.10;7.60;;;35.00;66.30;;;;;;5055158;28;20476;-67
2023/09/08 10:10:28;;;;;;;12.07;7.70;;;35.00;65.80;;;;;;5056059;28;20437;-66
2023/09/08 10:12:56;;;;;;;8.70;7.80;;;34.70;65.60;;;;;;5063677;28;20859;-67
2023/09/08 10:15:24;;;;;;;9.03;8.13;;;34.60;66.40;;;;;;5067154;28;20869;-67
2023/09/08 10:17:56;;;;;;;8.63;7.83;;;34.30;67.40;;;;;;5054978;28;20489;-69
2023/09/08 10:20:24;;;;;;;9.40;8.50;;;34.40;67.60;;;;;;5042739;28;20490;-67
2023/09/08 10:22:55;;;;;;;9.03;8.00;;;34.10;67.40;;;;;;5049681;28;20448;-67
2023/09/08 10:25:25;;;;;;;7.40;6.80;;;34.00;67.70;;;;;;5043965;28;20944;-66
2023/09/08 10:27:52;;;;;;;7.77;7.07;;;33.70;68.20;;;;;;5039487;28;20458;-68
2023/09/08 10:30:21;;;;;;;7.40;6.70;;;33.40;69.20;;;;;;5045727;28;20453;-68
2023/09/08 10:32:50;;;;;;;8.03;7.13;;;33.20;69.70;;;;;;5045789;28;20447;-69
2023/09/08 10:35:19;;;;;;;9.97;7.90;;;32.90;71.10;;;;;;5050630;28;20450;-68
2023/09/08 10:45:15;;;;;;;7.43;6.70;;;32.00;72.40;;;;;;5052603;28;20420;-84
2023/09/08 10:47:57;;;;;;;8.40;7.80;;;31.70;73.30;;;;;;5061929;28;20496;-83
2023/09/08 10:50:32;;;;;;;8.00;6.37;;;31.70;74.10;;;;;;5059807;28;20445;-82
2023/09/08 10:53:07;;;;;;;11.10;8.60;;;31.70;73.30;;;;;;5066443;28;20456;-83
2023/09/08 10:55:42;;;;;;;7.60;6.67;;;31.50;73.80;;;;;;5056987;28;20485;-83
2023/09/08 10:58:11;;;;;;;8.27;7.47;;;31.30;74.40;;;;;;5059897;28;20496;-83
2023/09/08 11:00:45;;;;;;;8.80;7.90;;;31.20;74.80;;;;;;5052363;28;20447;-83
2023/09/08 11:03:13;;;;;;;8.67;7.77;;;30.90;75.80;;;;;;5061776;28;20479;-83
2023/09/08 11:05:42;;;;;;;9.27;7.63;;;30.80;78.20;;;;;;5055237;28;20471;-83
2023/09/08 11:08:09;;;;;;;7.87;7.17;;;30.80;77.40;;;;;;5066080;28;20471;-82
2023/09/08 11:10:37;;;;;;;7.23;6.63;;;31.00;77.30;;;;;;5055716;28;20450;-83
2023/09/08 11:13:06;;;;;;;9.03;7.63;;;31.30;77.00;;;;;;5069706;28;20438;-83
2023/09/08 11:15:33;;;;;;;8.73;7.40;;;31.40;77.20;;;;;;5060723;28;20585;-81
2023/09/08 11:18:06;;;;;;;8.37;6.80;;;31.50;75.80;;;;;;5069542;28;20478;-81
2023/09/08 11:20:33;;;;;;;7.00;6.40;;;31.40;76.20;;;;;;5074509;28;20449;-83
2023/09/08 11:23:03;;;;;;;7.50;6.67;;;31.40;76.20;;;;;;5062623;28;20478;-82
2023/09/08 11:25:34;;;;;;;7.57;6.87;;;31.20;75.60;;;;;;5062645;28;20464;-82
2023/09/08 11:28:01;;;;;;;8.50;7.70;;;31.00;75.80;;;;;;5053000;28;20462;-83
2023/09/08 11:30:28;;;;;;;7.90;7.20;;;30.90;76.70;;;;;;5060551;28;20446;-83
2023/09/08 11:32:58;;;;;;;8.53;6.73;;;30.80;76.80;;;;;;5056971;28;20451;-82
2023/09/08 11:35:28;;;;;;;9.50;7.80;;;30.50;77.20;;;;;;5056930;28;20449;-83
2023/09/08 11:38:00;;;;;;;8.17;7.37;;;30.40;78.00;;;;;;5062784;28;20490;-83
2023/09/08 11:40:29;;;;;;;8.23;7.40;;;30.40;78.40;;;;;;5053646;28;20447;-83
2023/09/08 11:42:55;;;;;;;7.43;6.83;;;30.50;78.80;;;;;;5051179;28;20518;-82
2023/09/08 11:45:23;;;;;;;8.17;7.37;;;30.40;78.20;;;;;;5058923;28;20443;-82
2023/09/08 11:47:50;;;;;;;8.70;7.50;;;30.30;78.50;;;;;;5057591;28;20455;-82
2023/09/08 11:50:19;;;;;;;7.73;6.67;;;30.30;78.60;;;;;;5056412;28;20466;-82
2023/09/08 11:52:48;;;;;;;8.40;6.93;;;30.30;79.00;;;;;;5056087;28;20449;-83
2023/09/08 11:55:16;;;;;;;8.00;7.30;;;30.30;78.50;;;;;;5055948;28;20801;-83
2023/09/08 11:57:47;;;;;;;7.83;6.57;;;30.30;78.40;;;;;;5057862;28;20842;-83
2023/09/08 12:00:17;;;;;;;7.73;7.03;;;30.30;77.70;;;;;;5059094;28;20439;-82
2023/09/08 12:02:45;;;;;;;8.47;7.77;;;30.20;78.10;;;;;;5049629;28;20447;-83
2023/09/08 12:05:22;;;;;;;7.03;6.47;;;30.30;78.10;;;;;;5057819;28;20434;-83
2023/09/08 12:07:49;;;;;;;7.70;6.70;;;30.30;78.40;;;;;;5061895;28;20454;-82
2023/09/08 12:10:15;;;;;;;6.93;6.23;;;30.40;78.60;;;;;;5057906;28;20471;-83
2023/09/08 12:12:47;;;;;;;7.67;6.53;;;30.40;79.10;;;;;;5062138;28;20440;-83
2023/09/08 12:15:35;;;;;;;7.60;6.90;;;30.50;78.50;;;;;;5055596;28;20438;-83
2023/09/08 12:18:03;;;;;;;7.83;6.90;;;30.40;78.70;;;;;;5055485;28;20545;-83
2023/09/08 12:20:30;;;;;;;11.47;7.57;;;30.30;79.50;;;;;;5059926;28;20544;-83
2023/09/08 12:23:00;;;;;;;8.57;7.67;;;30.40;78.80;;;;;;5062003;28;20477;-82
2023/09/08 12:25:28;;;;;;;7.70;7.00;;;30.40;79.10;;;;;;5058588;28;20439;-82
2023/09/08 12:27:56;;;;;;;7.13;6.43;;;30.50;78.80;;;;;;5059553;28;20464;-83
2023/09/08 12:30:29;;;;;;;9.40;7.27;;;30.50;78.00;;;;;;5062507;28;20793;-82
2023/09/08 12:32:58;;;;;;;8.60;6.83;;;30.50;77.80;;;;;;5063976;28;20438;-84
2023/09/08 12:35:26;;;;;;;6.97;6.47;;;30.40;77.90;;;;;;5058829;28;20446;-82
2023/09/08 12:38:01;;;;;;;7.90;7.20;;;30.40;77.90;;;;;;5061131;28;20549;-82
2023/09/08 12:40:28;;;;;;;7.23;6.30;;;30.40;78.30;;;;;;5057890;28;20461;-82
2023/09/08 12:42:57;;;;;;;9.63;7.63;;;30.40;78.10;;;;;;5059087;28;20505;-83
2023/09/08 12:45:26;;;;;;;7.97;6.90;;;30.40;78.20;;;;;;5051997;28;20466;-82
2023/09/08 12:47:54;;;;;;;6.40;5.90;;;30.60;78.00;;;;;;5057703;28;20544;-83
2023/09/08 12:50:21;;;;;;;6.47;5.87;;;30.60;77.50;;;;;;5053163;28;20546;-83
2023/09/08 12:52:48;;;;;;;6.60;5.90;;;30.60;77.80;;;;;;5059790;28;20455;-82
2023/09/08 12:55:15;;;;;;;7.23;6.43;;;30.70;77.70;;;;;;5047235;28;20890;-82
2023/09/08 12:57:42;;;;;;;10.07;6.40;;;30.70;76.90;;;;;;5057381;28;20505;-83
2023/09/08 13:00:11;;;;;;;12.00;6.67;;;30.80;76.80;;;;;;5052664;28;20457;-82
2023/09/08 13:02:38;;;;;;;7.60;6.90;;;30.80;76.50;;;;;;5052956;28;20533;-84
2023/09/08 13:05:05;;;;;;;6.30;5.67;;;30.90;76.70;;;;;;5049655;28;20461;-82
2023/09/08 13:07:32;;;;;;;6.90;6.40;;;30.80;76.10;;;;;;5061182;28;20499;-82
2023/09/08 13:09:59;;;;;;;9.07;6.43;;;30.90;76.00;;;;;;5054138;28;20526;-83
2023/09/08 13:12:25;;;;;;;10.43;6.10;;;30.90;75.00;;;;;;5054680;28;20937;-83
2023/09/08 13:14:52;;;;;;;7.30;6.53;;;30.90;74.80;;;;;;5049376;28;20496;-83
2023/09/08 13:17:21;;;;;;;7.10;6.40;;;31.00;75.20;;;;;;5061723;28;20485;-83
2023/09/08 13:19:48;;;;;;;7.10;6.50;;;30.90;75.00;;;;;;5053506;28;20457;-83
2023/09/08 13:22:15;;;;;;;7.50;6.17;;;30.80;75.50;;;;;;5053087;28;20494;-82
2023/09/08 13:24:42;;;;;;;5.50;5.10;;;30.80;76.00;;;;;;5058053;28;20447;-82
2023/09/08 13:27:09;;;;;;;6.80;6.10;;;30.70;75.60;;;;;;5059659;28;20873;-82
2023/09/08 13:29:35;;;;;;;8.80;8.00;;;30.70;75.10;;;;;;5052681;28;20469;-83
2023/09/08 13:32:03;;;;;;;11.80;5.83;;;30.70;75.20;;;;;;5055246;28;20454;-82
2023/09/08 13:34:32;;;;;;;9.50;5.67;;;30.60;75.80;;;;;;5048041;28;20450;-82
2023/09/08 13:36:59;;;;;;;6.80;5.90;;;30.70;75.20;;;;;;5060429;28;20481;-82
2023/09/08 13:39:26;;;;;;;8.67;6.07;;;30.70;75.10;;;;;;5055712;28;20483;-82
2023/09/08 13:41:54;;;;;;;6.67;6.00;;;30.70;75.60;;;;;;5052930;28;20533;-82
2023/09/08 13:44:22;;;;;;;6.37;5.70;;;30.70;75.00;;;;;;5052916;28;20454;-83
2023/09/08 13:46:49;;;;;;;5.90;5.40;;;30.70;74.90;;;;;;5045314;28;20468;-83
2023/09/08 13:49:16;;;;;;;7.10;6.03;;;30.70;74.40;;;;;;5057818;28;20450;-83
2023/09/08 13:51:45;;;;;;;6.17;5.57;;;30.70;73.50;;;;;;5049897;28;20475;-84
2023/09/08 13:54:13;;;;;;;6.67;6.07;;;30.70;73.60;;;;;;5066191;28;20514;-83
2023/09/08 13:56:41;;;;;;;6.10;5.40;;;30.70;73.30;;;;;;5064861;28;21001;-83
2023/09/08 13:59:09;;;;;;;6.73;5.30;;;30.70;73.10;;;;;;5065307;28;20542;-82
2023/09/08 14:01:37;;;;;;;6.43;5.40;;;30.70;72.60;;;;;;5067422;28;20476;-82
2023/09/08 14:04:06;;;;;;;6.90;5.70;;;30.80;72.20;;;;;;5073770;28;20473;-83
2023/09/08 14:06:33;;;;;;;6.00;5.50;;;30.70;72.70;;;;;;5070302;28;20465;-83
2023/09/08 14:09:01;;;;;;;5.60;5.10;;;30.70;72.70;;;;;;5074031;28;20488;-82
2023/09/08 14:11:28;;;;;;;5.77;5.27;;;30.80;72.20;;;;;;5068071;28;20477;-82
2023/09/08 14:13:55;;;;;;;6.20;5.70;;;30.80;72.00;;;;;;5075594;28;20505;-83
2023/09/08 14:16:22;;;;;;;5.17;4.77;;;30.80;71.80;;;;;;5063142;28;20442;-82
2023/09/08 14:18:49;;;;;;;5.77;5.30;;;30.90;71.90;;;;;;5066573;28;20569;-84
2023/09/08 14:21:16;;;;;;;5.23;4.83;;;30.90;72.00;;;;;;5062683;28;20450;-83
2023/09/08 14:23:47;;;;;;;6.97;6.30;;;31.00;72.20;;;;;;5071079;28;20869;-84
2023/09/08 14:26:16;;;;;;;5.83;5.20;;;31.00;72.10;;;;;;5063667;28;20444;-83
2023/09/08 14:28:43;;;;;;;6.30;5.17;;;31.10;71.90;;;;;;5061967;28;20453;-82
2023/09/08 14:31:10;;;;;;;5.60;5.10;;;31.10;71.80;;;;;;5055315;28;20462;-84
2023/09/08 14:33:37;;;;;;;5.70;5.20;;;31.00;71.00;;;;;;5060537;28;20525;-82
2023/09/08 14:36:04;;;;;;;5.77;5.20;;;31.10;70.70;;;;;;5057178;28;20518;-84
2023/09/08 14:38:31;;;;;;;5.90;5.30;;;31.00;71.30;;;;;;5051921;28;20633;-83
2023/09/08 14:41:00;;;;;;;5.60;5.07;;;31.00;71.40;;;;;;5058711;28;20449;-84
2023/09/08 14:43:29;;;;;;;5.40;4.60;;;31.00;71.20;;;;;;5058605;28;20442;-83
2023/09/08 14:45:57;;;;;;;6.67;5.80;;;31.00;71.10;;;;;;5058816;28;20892;-83
2023/09/08 14:48:24;;;;;;;5.60;5.00;;;31.10;71.40;;;;;;5051013;28;20479;-83
2023/09/08 14:50:51;;;;;;;5.30;4.90;;;31.00;71.10;;;;;;5055753;28;20911;-83
2023/09/08 14:53:18;;;;;;;6.07;5.47;;;31.00;71.40;;;;;;5061671;28;20528;-82
2023/09/08 14:55:47;;;;;;;6.20;5.57;;;31.10;71.40;;;;;;5065169;28;20452;-84
2023/09/08 14:58:14;;;;;;;5.80;5.30;;;31.10;71.90;;;;;;5053892;28;20483;-83
2023/09/08 15:00:43;;;;;;;7.30;6.57;;;31.10;71.60;;;;;;5062248;28;20451;-84
2023/09/08 15:03:10;;;;;;;8.23;6.50;;;31.10;71.80;;;;;;5056397;28;20514;-84
2023/09/08 15:05:37;;;;;;;8.40;5.10;;;31.00;71.60;;;;;;5051203;28;20477;-85
2023/09/08 15:08:04;;;;;;;8.33;6.40;;;31.10;71.80;;;;;;5048550;28;20481;-85
2023/09/08 15:10:31;;;;;;;7.20;5.17;;;31.00;71.80;;;;;;5053825;28;20470;-84
2023/09/08 15:13:05;;;;;;;7.17;6.57;;;30.90;71.60;;;;;;5055977;28;20503;-84
2023/09/08 15:15:32;;;;;;;7.97;6.50;;;30.90;72.00;;;;;;5059456;28;20464;-83
2023/09/08 15:18:00;;;;;;;7.70;6.80;;;30.90;72.30;;;;;;5060986;28;20493;-83
2023/09/08 15:20:27;;;;;;;7.40;5.93;;;30.90;72.20;;;;;;5063511;28;20435;-86
2023/09/08 15:22:55;;;;;;;6.10;5.50;;;30.90;72.40;;;;;;5058053;28;20814;-84
2023/09/08 15:25:22;;;;;;;5.60;5.20;;;30.90;72.60;;;;;;5051096;28;20431;-84
2023/09/08 15:27:49;;;;;;;6.23;5.73;;;30.90;72.40;;;;;;5059481;28;20496;-84
2023/09/08 15:30:16;;;;;;;5.87;5.37;;;31.00;72.50;;;;;;5055604;28;20903;-84
2023/09/08 15:32:45;;;;;;;6.20;5.60;;;31.00;72.60;;;;;;5057554;28;20439;-84
2023/09/08 15:35:13;;;;;;;6.27;5.67;;;31.00;73.30;;;;;;5067590;28;20446;-84
2023/09/08 15:37:40;;;;;;;5.30;4.90;;;30.90;74.00;;;;;;5059959;28;20471;-84
2023/09/08 15:40:13;;;;;;;5.77;5.23;;;30.90;73.50;;;;;;5055347;28;20573;-84
2023/09/08 15:42:41;;;;;;;7.90;6.00;;;30.80;73.30;;;;;;5058502;28;20472;-84
2023/09/08 15:45:09;;;;;;;6.83;5.07;;;30.80;73.80;;;;;;5058907;28;20459;-84
2023/09/08 15:47:36;;;;;;;6.67;5.70;;;30.70;73.20;;;;;;5063769;28;20686;-84
2023/09/08 15:50:07;;;;;;;6.30;5.50;;;30.60;73.20;;;;;;5058718;28;20466;-84
2023/09/08 15:52:35;;;;;;;6.13;5.07;;;30.70;73.50;;;;;;5066903;28;20454;-85
2023/09/08 15:55:02;;;;;;;6.30;5.70;;;30.60;74.10;;;;;;5059788;28;20458;-85
2023/09/08 15:57:29;;;;;;;6.60;5.03;;;30.60;74.40;;;;;;5059548;28;20469;-83
2023/09/08 15:59:56;;;;;;;5.70;5.17;;;30.60;75.70;;;;;;5068492;28;20474;-84
2023/09/08 16:02:23;;;;;;;6.43;5.83;;;30.60;74.70;;;;;;5056724;28;20481;-84
2023/09/08 16:04:50;;;;;;;7.53;6.73;;;30.50;75.20;;;;;;5057358;28;20461;-84
2023/09/08 16:07:20;;;;;;;8.83;5.83;;;30.40;75.20;;;;;;5065426;28;20957;-85
2023/09/08 16:09:48;;;;;;;6.83;6.10;;;30.40;75.30;;;;;;5063661;28;20828;-84
2023/09/08 16:12:15;;;;;;;7.53;5.30;;;30.40;75.30;;;;;;5051493;28;20474;-84
2023/09/08 16:14:42;;;;;;;8.13;5.77;;;30.40;74.80;;;;;;5059468;28;20481;-84
2023/09/08 16:17:09;;;;;;;5.83;5.30;;;30.30;75.20;;;;;;5060077;28;20470;-84
2023/09/08 16:19:36;;;;;;;6.30;5.80;;;30.30;75.30;;;;;;5059985;28;20493;-84
2023/09/08 16:22:03;;;;;;;7.90;6.67;;;30.20;74.90;;;;;;5059236;28;20492;-84
2023/09/08 16:24:30;;;;;;;6.90;6.30;;;30.10;75.30;;;;;;5060631;28;20485;-84
2023/09/08 16:27:00;;;;;;;6.13;5.63;;;30.00;75.70;;;;;;5056708;28;20461;-84
2023/09/08 16:29:27;;;;;;;7.67;6.93;;;30.10;75.60;;;;;;5050503;28;20455;-85
2023/09/08 16:31:54;;;;;;;7.30;6.13;;;30.00;75.60;;;;;;5066619;28;20509;-85
2023/09/08 16:34:23;;;;;;;6.97;6.17;;;29.90;76.00;;;;;;5061437;28;20454;-84
2023/09/08 16:36:50;;;;;;;8.77;6.60;;;29.90;75.80;;;;;;5063630;28;20502;-84
2023/09/08 16:39:17;;;;;;;9.90;5.90;;;30.00;76.20;;;;;;5065357;28;20506;-84
2023/09/08 16:41:44;;;;;;;6.33;5.60;;;29.90;76.20;;;;;;5054937;28;20481;-85
2023/09/08 16:44:12;;;;;;;6.30;5.13;;;29.90;76.30;;;;;;5057415;28;20451;-84
2023/09/08 16:46:39;;;;;;;6.57;6.00;;;29.80;76.00;;;;;;5061383;28;20485;-84
2023/09/08 16:49:06;;;;;;;6.60;6.00;;;29.80;76.50;;;;;;5057415;28;20445;-84
2023/09/08 16:51:33;;;;;;;7.43;5.80;;;29.70;77.50;;;;;;5047424;28;20438;-88
2023/09/08 16:54:00;;;;;;;9.97;6.50;;;29.70;77.10;;;;;;5065519;28;20437;-86
2023/09/08 16:56:32;;;;;;;8.93;8.10;;;29.60;77.10;;;;;;5065299;28;20446;-87
2023/09/08 16:58:59;;;;;;;6.53;5.93;;;29.60;77.40;;;;;;5071051;28;20462;-87
2023/09/08 17:01:27;;;;;;;6.37;5.77;;;29.60;77.40;;;;;;5068947;28;20429;-85
2023/09/08 17:03:54;;;;;;;7.20;6.23;;;29.50;77.40;;;;;;5058904;28;20483;-83
2023/09/08 17:06:21;;;;;;;6.63;6.03;;;29.50;77.60;;;;;;5059813;28;20464;-84
2023/09/08 17:08:49;;;;;;;8.20;7.40;;;29.40;78.50;;;;;;5069100;28;20447;-84
2023/09/08 17:11:18;;;;;;;8.00;6.50;;;29.30;77.30;;;;;;5071076;28;20445;-85
2023/09/08 17:13:45;;;;;;;6.50;5.50;;;29.30;78.00;;;;;;5063785;28;20455;-84
2023/09/08 17:16:14;;;;;;;7.90;6.47;;;29.20;77.70;;;;;;5067176;28;20434;-85
2023/09/08 17:18:42;;;;;;;9.37;6.73;;;29.10;78.50;;;;;;5071338;28;20462;-85
2023/09/08 17:21:09;;;;;;;11.43;7.50;;;29.00;78.80;;;;;;5076423;28;20472;-86
2023/09/08 17:23:36;;;;;;;9.07;8.13;;;28.90;79.20;;;;;;5067651;28;20411;-87
2023/09/08 17:26:04;;;;;;;9.80;8.80;;;28.90;79.40;;;;;;5072941;28;20488;-85
2023/09/08 17:28:31;;;;;;;11.20;9.00;;;28.80;79.70;;;;;;5057276;28;20540;-82
2023/09/08 17:30:58;;;;;;;7.17;6.50;;;28.70;79.90;;;;;;5064455;28;20467;-81
2023/09/08 17:33:25;;;;;;;7.80;6.97;;;28.60;79.80;;;;;;5054093;28;20490;-82
2023/09/08 17:35:53;;;;;;;7.07;6.37;;;28.60;80.30;;;;;;5062800;28;20449;-83
2023/09/08 17:38:20;;;;;;;6.77;6.13;;;28.50;80.30;;;;;;5057878;28;20513;-84
2023/09/08 17:40:46;;;;;;;8.33;7.57;;;28.50;80.60;;;;;;5060734;28;20553;-82
2023/09/08 17:43:13;;;;;;;13.20;10.73;;;28.40;81.00;;;;;;5064448;28;20888;-82
2023/09/08 17:45:40;;;;;;;11.73;7.80;;;28.30;81.60;;;;;;5060497;28;20563;-82
2023/09/08 17:48:15;;;;;;;8.13;7.33;;;28.20;81.70;;;;;;5065917;28;20459;-83
2023/09/08 17:50:41;;;;;;;8.03;7.23;;;28.20;82.10;;;;;;5063678;28;20418;-83
2023/09/08 17:53:10;;;;;;;10.80;7.47;;;28.10;82.40;;;;;;5062467;28;20438;-82
2023/09/08 17:55:36;;;;;;;8.03;7.33;;;28.00;82.80;;;;;;5054638;28;20466;-83
2023/09/08 17:58:03;;;;;;;9.57;8.60;;;27.90;82.90;;;;;;5054912;28;20493;-82
2023/09/08 18:00:30;;;;;;;10.30;9.33;;;27.80;83.30;;;;;;5063339;28;20474;-83
2023/09/08 18:02:57;;;;;;;8.57;7.73;;;27.70;83.50;;;;;;5054210;28;20490;-82
2023/09/08 18:05:25;;;;;;;10.77;7.50;;;27.60;83.80;;;;;;5063678;28;20473;-82
2023/09/08 18:07:55;;;;;;;8.07;7.30;;;27.50;84.00;;;;;;5062861;28;20486;-83
2023/09/08 18:10:23;;;;;;;8.40;7.60;;;27.50;84.20;;;;;;5060048;28;20579;-84
2023/09/08 18:12:51;;;;;;;8.07;7.30;;;27.40;84.30;;;;;;5063926;28;20476;-84
2023/09/08 18:15:18;;;;;;;13.00;7.70;;;27.30;84.60;;;;;;5057658;28;20899;-83
2023/09/08 18:17:47;;;;;;;8.37;7.57;;;27.20;84.70;;;;;;5059219;28;21023;-83
2023/09/08 18:20:14;;;;;;;8.23;7.50;;;27.20;85.00;;;;;;5054383;28;20497;-83
2023/09/08 18:22:41;;;;;;;10.27;8.60;;;27.10;85.20;;;;;;5062293;28;20442;-82
2023/09/08 18:25:10;;;;;;;9.57;8.53;;;27.00;85.50;;;;;;5056109;28;20881;-83
2023/09/08 18:27:41;;;;;;;8.30;7.57;;;26.90;86.10;;;;;;5052499;28;20578;-83
2023/09/08 18:30:10;;;;;;;10.57;8.10;;;26.80;86.90;;;;;;5059804;28;20514;-83
2023/09/08 18:32:37;;;;;;;10.00;8.50;;;26.70;88.10;;;;;;5057553;28;20478;-82
2023/09/08 18:35:04;;;;;;;10.53;9.33;;;26.60;88.50;;;;;;5056670;28;20526;-82
2023/09/08 18:37:31;;;;;;;13.33;9.10;;;26.40;89.70;;;;;;5067997;28;20488;-82
2023/09/08 18:39:58;;;;;;;15.50;10.63;;;26.30;90.00;;;;;;5063010;28;20526;-82
2023/09/08 18:42:27;;;;;;;12.80;10.73;;;26.20;90.40;;;;;;5061923;28;20514;-83
2023/09/08 18:44:58;;;;;;;13.37;10.47;;;26.10;90.90;;;;;;5054069;28;20468;-82
2023/09/08 18:47:27;;;;;;;15.07;10.07;;;26.00;91.40;;;;;;5064427;28;20477;-82
2023/09/08 18:49:54;;;;;;;12.40;11.10;;;25.90;91.90;;;;;;5064486;28;20441;-83
2023/09/08 18:52:21;;;;;;;12.67;10.70;;;25.70;92.10;;;;;;5058293;28;20484;-81
2023/09/08 18:54:47;;;;;;;14.80;13.00;;;25.60;92.40;;;;;;5051920;28;20446;-83
2023/09/08 18:57:14;;;;;;;14.17;11.20;;;25.50;92.80;;;;;;5051893;28;20493;-83
2023/09/08 18:59:41;;;;;;;12.27;11.00;;;25.40;93.20;;;;;;5054146;28;20507;-83
2023/09/08 19:02:09;;;;;;;11.57;10.10;;;25.30;93.60;;;;;;5060383;28;20455;-82
2023/09/08 19:04:36;;;;;;;12.30;10.07;;;25.20;93.70;;;;;;5054151;28;20470;-83
2023/09/08 19:07:03;;;;;;;11.47;9.63;;;25.00;93.70;;;;;;5075653;28;20525;-83
2023/09/08 19:09:30;;;;;;;12.30;10.33;;;25.00;94.00;;;;;;5066341;28;20464;-83
2023/09/08 19:11:57;;;;;;;13.00;10.57;;;24.90;94.60;;;;;;5072396;28;20439;-82
2023/09/08 19:14:27;;;;;;;18.93;10.83;;;24.80;95.10;;;;;;5050559;28;20523;-69
2023/09/08 19:16:54;;;;;;;13.30;11.00;;;24.80;95.30;;;;;;5045906;28;20473;-70
2023/09/08 19:19:22;;;;;;;13.23;11.87;;;24.70;95.50;;;;;;5050814;28;20452;-70
2023/09/08 19:21:49;;;;;;;11.90;10.70;;;24.60;95.80;;;;;;5043965;28;20445;-70
2023/09/08 19:24:17;;;;;;;11.70;10.50;;;24.60;96.30;;;;;;5040836;28;20451;-69
2023/09/08 19:26:44;;;;;;;16.33;11.53;;;24.50;96.70;;;;;;5045235;28;20473;-68
2023/09/08 19:29:11;;;;;;;14.53;13.03;;;24.40;97.00;;;;;;5049693;28;20462;-70
2023/09/08 19:31:38;;;;;;;15.80;13.33;;;24.40;97.30;;;;;;5041038;28;20436;-69
2023/09/08 19:34:05;;;;;;;16.70;14.27;;;24.30;97.80;;;;;;5050941;28;20535;-69
2023/09/08 19:36:33;;;;;;;15.23;13.67;;;24.20;98.20;;;;;;5049115;28;20451;-69
2023/09/08 19:39:00;;;;;;;14.67;12.77;;;24.20;98.50;;;;;;5047686;28;20451;-68
2023/09/08 19:41:27;;;;;;;18.93;12.90;;;24.10;98.90;;;;;;5042472;28;20478;-71
2023/09/08 19:43:53;;;;;;;17.67;12.67;;;24.00;99.30;;;;;;5045103;28;20443;-69
2023/09/08 19:46:20;;;;;;;15.80;13.77;;;23.90;99.40;;;;;;5045485;28;20971;-68
2023/09/08 19:48:47;;;;;;;16.47;14.80;;;23.80;99.90;;;;;;5041826;28;20526;-69
2023/09/08 19:51:14;;;;;;;14.10;12.60;;;23.80;99.90;;;;;;5045058;28;20442;-69
2023/09/08 19:53:42;;;;;;;24.00;16.40;;;23.70;99.90;;;;;;5051108;28;20990;-69
2023/09/08 19:56:09;;;;;;;19.30;16.10;;;23.70;99.90;;;;;;5044804;28;20451;-70
2023/09/08 19:58:36;;;;;;;20.20;17.87;;;23.70;99.90;;;;;;5047226;28;20470;-68
2023/09/08 20:01:06;;;;;;;16.57;14.77;;;23.60;99.90;;;;;;5040743;28;20482;-69
2023/09/08 20:03:34;;;;;;;18.30;15.03;;;23.50;99.90;;;;;;5048764;28;20515;-69
2023/09/08 20:06:22;;;;;;;16.53;14.90;;;23.50;99.90;;;;;;5043527;28;20462;-84
2023/09/08 20:09:12;;;;;;;16.83;14.33;;;23.40;99.90;;;;;;5056889;28;20486;-83
2023/09/08 20:11:40;;;;;;;18.90;14.00;;;23.40;99.90;;;;;;5065955;28;20491;-84
2023/09/08 20:14:07;;;;;;;13.40;12.10;;;23.40;99.90;;;;;;5062052;28;20936;-82
2023/09/08 20:16:34;;;;;;;17.13;14.60;;;23.40;99.90;;;;;;5055577;28;20447;-82
2023/09/08 20:19:56;;;;;;;17.60;13.20;;;23.30;99.90;;;;;;5054474;28;20529;-80
2023/09/08 20:22:23;;;;;;;13.07;11.23;;;23.20;99.90;;;;;;5040960;28;20460;-87
2023/09/08 20:24:52;;;;;;;15.97;13.30;;;23.20;99.90;;;;;;5060784;28;20826;-85
2023/09/08 20:27:31;;;;;;;21.87;15.53;;;23.20;99.90;;;;;;5065662;28;20466;-82
2023/09/08 20:30:11;;;;;;;14.97;13.37;;;23.20;99.90;;;;;;5076187;28;20430;-85
2023/09/08 20:32:38;;;;;;;15.83;14.17;;;23.00;99.90;;;;;;5064026;28;20447;-83
2023/09/08 20:35:06;;;;;;;16.53;14.73;;;23.10;99.90;;;;;;5061344;28;20468;-81
2023/09/08 20:37:33;;;;;;;15.23;13.60;;;23.20;99.90;;;;;;5066310;28;20466;-87
2023/09/08 20:40:02;;;;;;;14.10;12.80;;;23.20;99.90;;;;;;5064905;28;20488;-84
2023/09/08 20:42:29;;;;;;;13.50;11.00;;;23.10;99.90;;;;;;5049938;22;20498;-71
2023/09/08 20:44:56;;;;;;;15.30;13.77;;;23.20;99.70;;;;;;5032376;28;20449;-73
2023/09/08 20:47:23;;;;;;;13.50;12.10;;;23.20;99.60;;;;;;5046324;28;20547;-73
2023/09/08 20:49:50;;;;;;;14.03;12.53;;;23.20;99.90;;;;;;5049190;28;20446;-70
2023/09/08 20:52:17;;;;;;;12.83;11.53;;;23.10;99.90;;;;;;5045728;28;20514;-74
2023/09/08 20:54:44;;;;;;;13.03;11.60;;;23.10;99.90;;;;;;5044485;28;20556;-73
2023/09/08 20:57:14;;;;;;;13.60;12.20;;;23.00;99.90;;;;;;5046729;28;20466;-72
2023/09/08 20:59:41;;;;;;;12.90;11.50;;;23.10;99.90;;;;;;5050513;28;20925;-71
2023/09/08 21:02:08;;;;;;;13.93;11.80;;;23.00;99.90;;;;;;5048803;28;20516;-72
2023/09/08 21:04:35;;;;;;;16.80;11.13;;;23.00;99.70;;;;;;5043978;28;20468;-72
2023/09/08 21:07:02;;;;;;;11.03;9.90;;;22.90;99.80;;;;;;5040429;28;20830;-73
2023/09/08 21:09:29;;;;;;;9.80;8.80;;;22.90;99.80;;;;;;5049376;28;21003;-71
2023/09/08 21:11:56;;;;;;;11.27;9.50;;;22.90;99.30;;;;;;5048721;28;20444;-69
2023/09/08 21:14:24;;;;;;;12.87;10.00;;;22.90;99.10;;;;;;5045025;28;20447;-73
2023/09/08 21:16:51;;;;;;;11.80;9.70;;;22.90;99.00;;;;;;5052075;28;20564;-75
2023/09/08 21:19:18;;;;;;;11.67;8.63;;;22.90;98.90;;;;;;5048103;28;20470;-73
2023/09/08 21:21:46;;;;;;;10.93;9.73;;;22.90;98.90;;;;;;5045195;28;20490;-71
2023/09/08 21:24:13;;;;;;;16.10;11.87;;;22.90;99.10;;;;;;5052190;28;20444;-72
2023/09/08 21:26:40;;;;;;;12.33;9.43;;;22.80;99.30;;;;;;5051035;28;20461;-74
2023/09/08 21:29:27;;;;;;;10.00;8.63;;;22.90;99.20;;;;;;5049575;28;20456;-72
2023/09/08 21:31:54;;;;;;;15.97;10.37;;;22.80;99.10;;;;;;5046610;28;20434;-74
2023/09/08 21:34:29;;;;;;;16.80;12.80;;;22.70;99.40;;;;;;5052872;28;20545;-75
2023/09/08 21:36:56;;;;;;;12.13;10.93;;;22.70;99.10;;;;;;5049944;28;20536;-72
2023/09/08 21:39:23;;;;;;;12.47;11.27;;;22.70;99.40;;;;;;5044893;28;20872;-71
2023/09/08 21:41:50;;;;;;;13.23;12.03;;;22.60;99.60;;;;;;5050955;28;20995;-71
2023/09/08 21:44:17;;;;;;;12.33;10.20;;;22.50;99.80;;;;;;5051744;28;20951;-72
2023/09/08 21:46:46;;;;;;;12.90;9.33;;;22.50;99.70;;;;;;5051305;28;20870;-71
2023/09/08 21:49:13;;;;;;;12.30;10.37;;;22.50;99.50;;;;;;5042727;28;20979;-71
2023/09/08 21:51:39;;;;;;;10.50;9.50;;;22.50;99.60;;;;;;5049717;28;20785;-72
2023/09/08 21:54:07;;;;;;;12.50;10.90;;;22.50;99.70;;;;;;5048771;28;20445;-73
2023/09/08 21:56:34;;;;;;;10.17;9.03;;;22.50;99.70;;;;;;5050153;28;20999;-71
2023/09/08 21:59:00;;;;;;;11.40;9.90;;;22.40;99.90;;;;;;5049480;28;20537;-72
2023/09/08 22:01:29;;;;;;;10.50;8.67;;;22.40;99.90;;;;;;5046239;28;20486;-72